Country
Station

 

Weather  for  Warszawa-Okecie  -  Poland    Poland

  
13 °C (55 °F)
    
 
 

Current METAR for Warszawa-Okecie is :

EPWA 200700Z 31003KT 260V340 CAVOK 13/00 Q1029 NOSIG

 

This is a report for Warszawa-Okecie - Poland.
 
The report was made 17 minutes ago, at 07:00 UTC .
The wind was blowing at a speed of 1.5 meters per second (3.5 miles per hour) from northwest (310°), varying between west (260°) and north/northwest (340°).
 
The temperature was 13 °C (55 °F)
The atmospheric pressure was 1029 hPa (30.39 inHg).
There were no clouds below 1500 meter (5000 feet) and no cumulonimbus clouds.
 
The overall visibility was greater than 10 kilometers (6.2 miles).
 

 
 
 
 

Country :   A   B   C   D   E   F   G   H   I   J   K   L   M   N   O   P   Q   R   S   T   U   V   W   Y   Z

 

Site Info  |  Disclaimer  |  Credits  |  Privacy
Contact us  |  Add to favorites
© 2013-2019 METARs - All rights reserved